Time;durP1;ratioP1;P1;durP2;ratioP2;P2;SDS_P1;SDS_P2;PMS_P1;PMS_P2;Temp;Humidity;BMP_temperature;BMP_pressure;BME280_temperature;BME280_humidity;BME280_pressure;Samples;Min_cycle;Max_cycle;Signal;HPM_P1;HPM_P2
2022/02/19 00:01:07;;;;;;;3.43;1.30;;;;;;;;;;5060181;28;20469;-81
2022/02/19 00:03:33;;;;;;;2.37;1.17;;;;;;;;;;5060523;28;20412;-80
2022/02/19 00:05:59;;;;;;;1.73;1.00;;;;;;;;;;5059816;28;20440;-80
2022/02/19 00:08:25;;;;;;;1.90;1.00;;;;;;;;;;5059600;28;20509;-81
2022/02/19 00:10:52;;;;;;;2.33;1.13;;;;;;;;;;5060814;28;20404;-81
2022/02/19 00:13:18;;;;;;;1.50;1.00;;;;;;;;;;5059848;28;20459;-81
2022/02/19 00:15:44;;;;;;;1.40;0.80;;;;;;;;;;5059056;28;20390;-81
2022/02/19 00:18:11;;;;;;;3.93;1.30;;;;;;;;;;5059290;28;20451;-80
2022/02/19 00:20:37;;;;;;;2.73;1.00;;;;;;;;;;5059522;28;20443;-80
2022/02/19 00:23:03;;;;;;;2.43;1.10;;;;;;;;;;5058859;28;20421;-81
2022/02/19 00:25:29;;;;;;;1.97;1.10;;;;;;;;;;5059578;28;20410;-80
2022/02/19 00:27:55;;;;;;;3.60;1.23;;;;;;;;;;5058396;28;20925;-80
2022/02/19 00:30:21;;;;;;;2.00;0.90;;;;;;;;;;5058844;28;20834;-80
2022/02/19 00:32:48;;;;;;;2.43;1.00;;;;;;;;;;5058844;28;20959;-80
2022/02/19 00:35:14;;;;;;;2.87;1.00;;;;;;;;;;5058754;28;20425;-81
2022/02/19 00:37:42;;;;;;;1.93;1.37;;;;;;;;;;5071822;22;20461;-78
2022/02/19 00:40:09;;;;;;;2.33;1.03;;;;;;;;;;5053576;28;20433;-79
2022/02/19 00:42:35;;;;;;;6.03;1.10;;;;;;;;;;5062187;28;20401;-80
2022/02/19 00:45:01;;;;;;;2.47;1.00;;;;;;;;;;5061096;28;20920;-80
2022/02/19 00:47:27;;;;;;;5.70;1.20;;;;;;;;;;5063084;28;20473;-80
2022/02/19 00:49:53;;;;;;;3.17;1.00;;;;;;;;;;5062622;28;20470;-80
2022/02/19 00:52:19;;;;;;;3.77;1.20;;;;;;;;;;5062306;28;20401;-80
2022/02/19 00:54:45;;;;;;;3.60;1.20;;;;;;;;;;5062044;28;20409;-79
2022/02/19 00:57:11;;;;;;;3.50;1.30;;;;;;;;;;5060870;28;20424;-80
2022/02/19 00:59:37;;;;;;;4.33;1.27;;;;;;;;;;5060053;28;20483;-80
2022/02/19 01:02:04;;;;;;;1.70;1.03;;;;;;;;;;5060197;28;20438;-80
2022/02/19 01:04:30;;;;;;;4.57;1.50;;;;;;;;;;5061087;28;20838;-80
2022/02/19 01:06:56;;;;;;;2.30;1.17;;;;;;;;;;5062473;28;20441;-79
2022/02/19 01:09:26;;;;;;;1.80;0.90;;;;;;;;;;5063284;28;20813;-80
2022/02/19 01:11:52;;;;;;;4.03;1.37;;;;;;;;;;5060930;28;20402;-80
2022/02/19 01:14:18;;;;;;;3.20;1.20;;;;;;;;;;5061401;28;20488;-80
2022/02/19 01:16:44;;;;;;;1.97;1.23;;;;;;;;;;5061667;28;20421;-80
2022/02/19 01:19:10;;;;;;;2.07;1.20;;;;;;;;;;5061763;28;20443;-80
2022/02/19 01:21:36;;;;;;;2.67;1.00;;;;;;;;;;5060871;28;20452;-80
2022/02/19 01:24:02;;;;;;;2.40;1.30;;;;;;;;;;5061016;28;20857;-80
2022/02/19 01:26:28;;;;;;;1.77;0.97;;;;;;;;;;5059721;28;20503;-80
2022/02/19 01:28:54;;;;;;;3.70;1.03;;;;;;;;;;5061164;28;20429;-80
2022/02/19 01:31:20;;;;;;;2.97;1.00;;;;;;;;;;5059512;28;20409;-80
2022/02/19 01:33:46;;;;;;;1.67;1.10;;;;;;;;;;5071808;28;20400;-80
2022/02/19 01:36:13;;;;;;;3.10;1.10;;;;;;;;;;5069575;28;20445;-79
2022/02/19 01:38:39;;;;;;;1.73;1.13;;;;;;;;;;5059364;28;20437;-79
2022/02/19 01:41:05;;;;;;;2.53;1.33;;;;;;;;;;5058733;28;20471;-79
2022/02/19 01:43:31;;;;;;;2.07;0.80;;;;;;;;;;5058339;28;20409;-79
2022/02/19 01:45:57;;;;;;;2.60;1.10;;;;;;;;;;5058949;28;20409;-79
2022/02/19 01:48:23;;;;;;;1.73;1.00;;;;;;;;;;5059635;28;20542;-79
2022/02/19 01:50:49;;;;;;;3.40;0.90;;;;;;;;;;5058491;28;20410;-80
2022/02/19 01:53:16;;;;;;;2.20;1.20;;;;;;;;;;5058451;28;20397;-79
2022/02/19 01:55:42;;;;;;;2.73;1.07;;;;;;;;;;5058614;28;20485;-79
2022/02/19 01:58:09;;;;;;;3.60;1.07;;;;;;;;;;5059353;28;20425;-79
2022/02/19 02:00:36;;;;;;;2.90;1.10;;;;;;;;;;5058110;28;20425;-80
2022/02/19 02:03:03;;;;;;;3.03;1.17;;;;;;;;;;5059445;28;20456;-80
2022/02/19 02:05:29;;;;;;;2.43;1.10;;;;;;;;;;5058077;28;20421;-79
2022/02/19 02:07:55;;;;;;;3.07;1.00;;;;;;;;;;5048494;28;20462;-79
2022/02/19 02:10:21;;;;;;;3.13;1.13;;;;;;;;;;5029780;28;20482;-80
2022/02/19 02:12:47;;;;;;;2.57;1.33;;;;;;;;;;5040276;28;20406;-80
2022/02/19 02:15:27;;;;;;;2.40;1.00;;;;;;;;;;5049611;28;20399;-79
2022/02/19 02:17:53;;;;;;;1.90;0.80;;;;;;;;;;5042447;28;20454;-79
2022/02/19 02:20:19;;;;;;;3.37;1.03;;;;;;;;;;5043070;28;20419;-79
2022/02/19 02:22:46;;;;;;;1.73;0.90;;;;;;;;;;5042928;28;20413;-80
2022/02/19 02:25:13;;;;;;;1.50;1.10;;;;;;;;;;5041155;28;20410;-79
2022/02/19 02:27:39;;;;;;;5.40;1.33;;;;;;;;;;5039722;28;20465;-80
2022/02/19 02:30:06;;;;;;;2.47;1.00;;;;;;;;;;5039185;28;20449;-80
2022/02/19 02:32:32;;;;;;;4.20;1.20;;;;;;;;;;5037957;28;20418;-79
2022/02/19 02:34:58;;;;;;;3.67;1.30;;;;;;;;;;5039059;28;20410;-79
2022/02/19 02:37:25;;;;;;;2.27;1.00;;;;;;;;;;5039669;28;20439;-79
2022/02/19 02:39:51;;;;;;;2.30;1.10;;;;;;;;;;5038982;28;20906;-79
2022/02/19 02:42:21;;;;;;;8.03;1.27;;;;;;;;;;5037544;28;20593;-80
2022/02/19 02:44:47;;;;;;;2.83;1.27;;;;;;;;;;5038912;28;20787;-80
2022/02/19 02:47:14;;;;;;;5.33;1.67;;;;;;;;;;5039388;28;20469;-80
2022/02/19 02:49:40;;;;;;;4.67;1.50;;;;;;;;;;5038058;28;20442;-79
2022/02/19 02:52:09;;;;;;;4.80;1.20;;;;;;;;;;5038056;28;20411;-80
2022/02/19 02:54:35;;;;;;;3.13;1.10;;;;;;;;;;5038855;28;20414;-80
2022/02/19 02:57:01;;;;;;;7.47;1.70;;;;;;;;;;5039006;28;20483;-79
2022/02/19 02:59:27;;;;;;;5.83;1.27;;;;;;;;;;5038157;28;20438;-80
2022/02/19 03:01:54;;;;;;;2.43;1.13;;;;;;;;;;5038943;28;20425;-80
2022/02/19 03:04:20;;;;;;;3.03;1.30;;;;;;;;;;5038591;28;20459;-80
2022/02/19 03:06:46;;;;;;;7.17;2.27;;;;;;;;;;5038807;28;20515;-79
2022/02/19 03:09:12;;;;;;;1.87;1.40;;;;;;;;;;5038661;28;20450;-80
2022/02/19 03:11:39;;;;;;;3.03;1.17;;;;;;;;;;5038894;28;20409;-80
2022/02/19 03:14:10;;;;;;;6.97;1.43;;;;;;;;;;5039145;28;20407;-79
2022/02/19 03:16:36;;;;;;;2.10;1.10;;;;;;;;;;5039232;28;20387;-80
2022/02/19 03:19:03;;;;;;;4.80;1.73;;;;;;;;;;5038017;28;20462;-80
2022/02/19 03:21:29;;;;;;;2.83;1.10;;;;;;;;;;5037956;28;20414;-80
2022/02/19 03:23:55;;;;;;;1.90;0.90;;;;;;;;;;5038941;28;20728;-79
2022/02/19 03:26:21;;;;;;;2.53;1.30;;;;;;;;;;5038736;28;20909;-78
2022/02/19 03:28:48;;;;;;;1.33;0.80;;;;;;;;;;5036808;28;20442;-79
2022/02/19 03:31:14;;;;;;;2.43;1.10;;;;;;;;;;5037127;28;20474;-79
2022/02/19 03:33:40;;;;;;;1.83;1.30;;;;;;;;;;5037775;28;20426;-79
2022/02/19 03:36:06;;;;;;;3.47;1.10;;;;;;;;;;5038562;28;20410;-79
2022/02/19 03:38:32;;;;;;;1.83;1.23;;;;;;;;;;5035751;28;20471;-79
2022/02/19 03:40:58;;;;;;;2.47;1.00;;;;;;;;;;5039449;28;20420;-79
2022/02/19 03:43:24;;;;;;;3.77;1.33;;;;;;;;;;5039365;28;20950;-79
2022/02/19 03:45:50;;;;;;;1.90;1.20;;;;;;;;;;5036637;28;20453;-79
2022/02/19 03:48:16;;;;;;;2.90;1.03;;;;;;;;;;5022452;28;20484;-79
2022/02/19 03:50:42;;;;;;;2.10;1.17;;;;;;;;;;5020148;28;20771;-79
2022/02/19 03:53:08;;;;;;;2.03;1.20;;;;;;;;;;5019483;28;20842;-79
2022/02/19 03:55:35;;;;;;;3.23;1.50;;;;;;;;;;5019207;28;20419;-79
2022/02/19 03:58:02;;;;;;;1.30;0.90;;;;;;;;;;5020362;28;20446;-79
2022/02/19 04:00:28;;;;;;;1.57;0.97;;;;;;;;;;5019742;28;20404;-79
2022/02/19 04:02:54;;;;;;;3.30;0.90;;;;;;;;;;5019425;28;20960;-80
2022/02/19 04:05:20;;;;;;;2.00;1.00;;;;;;;;;;5017717;28;20465;-79
2022/02/19 04:07:47;;;;;;;1.70;1.10;;;;;;;;;;5018674;28;20463;-79
2022/02/19 04:10:14;;;;;;;1.37;0.83;;;;;;;;;;5018275;28;20767;-79
2022/02/19 04:12:40;;;;;;;1.40;0.90;;;;;;;;;;5019303;28;20407;-79
2022/02/19 04:15:06;;;;;;;5.23;1.40;;;;;;;;;;5017662;28;20479;-79
2022/02/19 04:17:32;;;;;;;2.90;1.00;;;;;;;;;;5022126;28;20453;-79
2022/02/19 04:19:59;;;;;;;2.03;1.00;;;;;;;;;;5023555;28;20411;-79
2022/02/19 04:22:25;;;;;;;2.47;0.90;;;;;;;;;;5022970;28;20415;-80
2022/02/19 04:24:51;;;;;;;1.70;0.90;;;;;;;;;;5022939;28;20434;-79
2022/02/19 04:27:18;;;;;;;2.60;1.07;;;;;;;;;;5040013;28;20450;-79
2022/02/19 04:29:45;;;;;;;2.43;0.90;;;;;;;;;;5044179;28;20507;-79
2022/02/19 04:32:11;;;;;;;2.40;1.20;;;;;;;;;;5043097;28;20430;-80
2022/02/19 04:34:38;;;;;;;3.70;1.10;;;;;;;;;;5042244;28;20423;-80
2022/02/19 04:37:04;;;;;;;4.80;1.50;;;;;;;;;;5042175;28;20414;-80
2022/02/19 04:39:30;;;;;;;1.97;1.03;;;;;;;;;;5042369;28;20450;-79
2022/02/19 04:41:56;;;;;;;3.77;1.37;;;;;;;;;;5042830;28;20414;-80
2022/02/19 04:44:22;;;;;;;2.27;1.40;;;;;;;;;;5042024;28;20414;-79
2022/02/19 04:46:48;;;;;;;1.97;1.00;;;;;;;;;;5042047;28;20442;-80
2022/02/19 04:49:14;;;;;;;5.97;1.90;;;;;;;;;;5040934;28;20430;-80
2022/02/19 04:51:40;;;;;;;2.57;1.37;;;;;;;;;;5041867;28;20779;-79
2022/02/19 04:54:06;;;;;;;3.80;1.40;;;;;;;;;;5040828;28;20409;-79
2022/02/19 04:56:33;;;;;;;4.23;1.53;;;;;;;;;;5039991;28;20413;-79
2022/02/19 04:58:59;;;;;;;4.50;1.30;;;;;;;;;;5041416;28;20450;-79
2022/02/19 05:01:26;;;;;;;3.50;1.50;;;;;;;;;;5040878;28;20417;-80
2022/02/19 05:03:56;;;;;;;3.30;1.40;;;;;;;;;;5041301;28;20770;-80
2022/02/19 05:06:23;;;;;;;5.90;1.60;;;;;;;;;;5040906;28;20395;-80
2022/02/19 05:08:49;;;;;;;3.50;1.13;;;;;;;;;;5041588;28;20426;-79
2022/02/19 05:11:15;;;;;;;5.70;1.67;;;;;;;;;;5039513;28;20474;-79
2022/02/19 05:13:41;;;;;;;2.10;1.13;;;;;;;;;;5040398;28;20752;-79
2022/02/19 05:16:07;;;;;;;4.17;1.53;;;;;;;;;;5040746;28;20429;-79
2022/02/19 05:18:33;;;;;;;6.03;1.40;;;;;;;;;;5039892;28;20418;-80
2022/02/19 05:20:59;;;;;;;1.90;1.30;;;;;;;;;;5039346;28;20414;-79
2022/02/19 05:23:25;;;;;;;3.50;1.20;;;;;;;;;;5040389;28;20399;-80
2022/02/19 05:25:52;;;;;;;1.77;1.40;;;;;;;;;;5040615;28;20773;-80
2022/02/19 05:28:18;;;;;;;2.60;1.30;;;;;;;;;;5043986;28;20450;-79
2022/02/19 05:30:44;;;;;;;1.97;1.20;;;;;;;;;;5059723;28;20468;-79
2022/02/19 05:33:10;;;;;;;1.50;1.13;;;;;;;;;;5040054;28;20422;-78
2022/02/19 05:35:36;;;;;;;5.40;1.60;;;;;;;;;;5037535;28;20442;-78
2022/02/19 05:38:02;;;;;;;6.10;1.60;;;;;;;;;;5040160;28;20442;-78
2022/02/19 05:40:28;;;;;;;5.03;1.50;;;;;;;;;;5037702;28;20407;-78
2022/02/19 05:42:54;;;;;;;2.40;1.43;;;;;;;;;;5039006;28;20484;-78
2022/02/19 05:45:20;;;;;;;2.80;1.30;;;;;;;;;;5039248;28;20406;-79
2022/02/19 05:47:46;;;;;;;7.03;1.33;;;;;;;;;;5041538;28;20462;-79
2022/02/19 05:50:13;;;;;;;5.23;1.73;;;;;;;;;;5041689;28;20402;-80
2022/02/19 05:52:39;;;;;;;5.03;2.00;;;;;;;;;;5041941;28;20456;-80
2022/02/19 05:55:05;;;;;;;2.23;2.03;;;;;;;;;;5042711;28;20426;-79
2022/02/19 05:57:31;;;;;;;2.40;1.40;;;;;;;;;;5041031;28;20752;-79
2022/02/19 05:59:57;;;;;;;3.83;1.47;;;;;;;;;;5039848;28;20413;-79
2022/02/19 06:02:23;;;;;;;4.23;1.57;;;;;;;;;;5039364;28;20407;-79
2022/02/19 06:04:49;;;;;;;8.27;1.93;;;;;;;;;;5039968;28;20410;-80
2022/02/19 06:07:15;;;;;;;7.53;1.90;;;;;;;;;;5038460;28;20485;-80
2022/02/19 06:09:41;;;;;;;3.73;2.00;;;;;;;;;;5040151;28;20417;-79
2022/02/19 06:12:08;;;;;;;3.27;1.70;;;;;;;;;;5039412;28;20805;-79
2022/02/19 06:14:34;;;;;;;6.47;1.63;;;;;;;;;;5038904;28;20435;-79
2022/02/19 06:17:02;;;;;;;5.70;1.53;;;;;;;;;;5042826;28;20409;-79
2022/02/19 06:19:28;;;;;;;7.13;3.23;;;;;;;;;;5040369;28;20490;-80
2022/02/19 06:21:54;;;;;;;5.33;1.53;;;;;;;;;;5039386;28;20406;-79
2022/02/19 06:24:20;;;;;;;5.13;1.90;;;;;;;;;;5039293;28;20406;-80
2022/02/19 06:26:46;;;;;;;6.93;2.03;;;;;;;;;;5038858;28;20817;-79
2022/02/19 06:29:12;;;;;;;2.50;1.50;;;;;;;;;;5038156;28;20438;-79
2022/02/19 06:31:38;;;;;;;5.63;1.83;;;;;;;;;;5039953;28;20463;-79
2022/02/19 06:34:05;;;;;;;6.70;1.60;;;;;;;;;;5038720;28;20410;-80
2022/02/19 06:36:31;;;;;;;4.80;1.50;;;;;;;;;;5038955;28;20482;-80
2022/02/19 06:38:57;;;;;;;4.67;2.77;;;;;;;;;;5053465;23;20494;-80
2022/02/19 06:41:23;;;;;;;9.50;1.77;;;;;;;;;;5035292;28;20423;-80
2022/02/19 06:43:49;;;;;;;6.43;1.60;;;;;;;;;;5040229;28;20395;-80
2022/02/19 06:46:15;;;;;;;7.30;1.93;;;;;;;;;;5040598;28;20402;-80
2022/02/19 06:48:41;;;;;;;2.63;1.63;;;;;;;;;;5039949;28;20482;-80
2022/02/19 06:51:07;;;;;;;4.60;1.77;;;;;;;;;;5039839;28;20412;-79
2022/02/19 06:53:33;;;;;;;5.70;1.63;;;;;;;;;;5038725;28;20416;-80
2022/02/19 06:55:59;;;;;;;2.93;1.37;;;;;;;;;;5040185;28;20407;-80
2022/02/19 06:58:26;;;;;;;4.73;1.87;;;;;;;;;;5039754;28;20395;-80
2022/02/19 07:00:52;;;;;;;2.70;1.63;;;;;;;;;;5039511;28;20403;-80
2022/02/19 07:03:19;;;;;;;3.83;1.33;;;;;;;;;;5040266;28;20785;-79
2022/02/19 07:05:51;;;;;;;6.47;2.13;;;;;;;;;;5039264;28;20469;-80
2022/02/19 07:08:17;;;;;;;7.20;1.63;;;;;;;;;;5041010;28;20474;-78
2022/02/19 07:10:43;;;;;;;17.27;2.10;;;;;;;;;;5038034;28;20406;-79
2022/02/19 07:13:09;;;;;;;5.47;2.10;;;;;;;;;;5036017;28;20809;-80
2022/02/19 07:15:35;;;;;;;3.73;2.10;;;;;;;;;;5039582;28;20898;-80
2022/02/19 07:18:01;;;;;;;2.73;1.73;;;;;;;;;;5038117;28;20406;-80
2022/02/19 07:20:27;;;;;;;3.53;1.90;;;;;;;;;;5043883;28;20445;-78
2022/02/19 07:22:54;;;;;;;9.70;2.70;;;;;;;;;;5041062;28;20407;-80
2022/02/19 07:25:20;;;;;;;3.60;1.67;;;;;;;;;;5039335;28;20498;-80
2022/02/19 07:27:47;;;;;;;8.17;2.50;;;;;;;;;;5040032;28;20446;-80
2022/02/19 07:30:14;;;;;;;4.53;1.80;;;;;;;;;;5040175;28;20426;-80
2022/02/19 07:32:40;;;;;;;7.40;1.80;;;;;;;;;;5040091;28;20407;-80
2022/02/19 07:35:07;;;;;;;4.03;1.60;;;;;;;;;;5037977;28;20922;-80
2022/02/19 07:37:34;;;;;;;5.20;1.80;;;;;;;;;;5039630;28;20422;-80
2022/02/19 07:40:00;;;;;;;7.70;1.70;;;;;;;;;;5039451;28;20452;-80
2022/02/19 07:42:26;;;;;;;7.23;1.90;;;;;;;;;;5040094;28;20411;-80
2022/02/19 07:44:53;;;;;;;8.07;2.73;;;;;;;;;;5040390;28;20406;-80
2022/02/19 07:47:25;;;;;;;11.90;1.90;;;;;;;;;;5040013;28;20450;-80
2022/02/19 07:58:18;;;;;;;4.97;1.83;;;;;;;;;;5040209;28;20393;-79
2022/02/19 08:00:45;;;;;;;6.57;2.67;;;;;;;;;;5043297;28;20383;-79
2022/02/19 08:03:11;;;;;;;7.67;2.20;;;;;;;;;;5044839;28;20460;-79
2022/02/19 08:05:37;;;;;;;6.97;2.27;;;;;;;;;;5038619;28;20444;-80
2022/02/19 08:08:04;;;;;;;8.93;2.20;;;;;;;;;;5039371;28;20943;-80
2022/02/19 08:10:30;;;;;;;4.67;1.63;;;;;;;;;;5039386;28;20465;-80
2022/02/19 08:12:56;;;;;;;6.27;2.07;;;;;;;;;;5039541;28;20413;-80
2022/02/19 08:15:22;;;;;;;6.83;2.33;;;;;;;;;;5038884;28;20413;-80
2022/02/19 08:17:48;;;;;;;11.07;2.13;;;;;;;;;;5040396;28;20417;-79
2022/02/19 08:20:14;;;;;;;16.30;2.70;;;;;;;;;;5038800;28;20423;-80
2022/02/19 08:22:40;;;;;;;7.30;2.00;;;;;;;;;;5036621;28;20422;-79
2022/02/19 08:25:06;;;;;;;8.70;2.90;;;;;;;;;;5035230;28;20917;-79
2022/02/19 08:27:38;;;;;;;5.33;1.50;;;;;;;;;;5044747;28;20954;-78
2022/02/19 08:30:05;;;;;;;7.27;1.60;;;;;;;;;;5018942;28;20431;-79
2022/02/19 08:32:31;;;;;;;4.40;2.10;;;;;;;;;;5047803;28;20408;-79
2022/02/19 08:34:57;;;;;;;5.30;1.87;;;;;;;;;;5071697;28;20465;-79
2022/02/19 08:37:24;;;;;;;7.30;2.20;;;;;;;;;;5073234;28;20428;-79
2022/02/19 08:39:50;;;;;;;7.80;2.00;;;;;;;;;;5059630;28;20783;-79
2022/02/19 08:42:16;;;;;;;5.93;2.27;;;;;;;;;;5059715;28;20420;-79
2022/02/19 08:44:42;;;;;;;21.53;3.10;;;;;;;;;;5043368;28;20407;-79
2022/02/19 08:47:08;;;;;;;7.53;1.77;;;;;;;;;;5042580;28;20452;-79
2022/02/19 08:49:34;;;;;;;6.37;2.20;;;;;;;;;;5042223;28;20188;-78
2022/02/19 08:52:00;;;;;;;5.60;1.70;;;;;;;;;;5050436;28;20386;-79
2022/02/19 08:54:26;;;;;;;5.77;2.00;;;;;;;;;;5049284;28;20444;-79
2022/02/19 08:56:53;;;;;;;7.60;2.33;;;;;;;;;;5044656;28;20437;-79
2022/02/19 08:59:20;;;;;;;6.83;2.00;;;;;;;;;;5039075;28;20477;-79
2022/02/19 09:01:46;;;;;;;9.10;2.10;;;;;;;;;;5039833;28;20501;-79
2022/02/19 09:04:12;;;;;;;3.63;1.50;;;;;;;;;;5041787;28;20426;-80
2022/02/19 09:06:38;;;;;;;7.18;2.10;;;;;;;;;;5041521;28;20554;-80
2022/02/19 09:09:06;;;;;;;9.10;2.00;;;;;;;;;;5042798;28;20210;-79
2022/02/19 09:11:32;;;;;;;9.27;2.40;;;;;;;;;;5044092;28;20406;-79
2022/02/19 09:13:58;;;;;;;7.43;2.30;;;;;;;;;;5045273;28;20402;-79
2022/02/19 09:16:26;;;;;;;7.70;2.33;;;;;;;;;;5044673;28;20399;-79
2022/02/19 09:18:52;;;;;;;7.93;2.40;;;;;;;;;;5043588;28;21198;-77
2022/02/19 09:21:18;;;;;;;14.00;2.20;;;;;;;;;;5039414;28;20426;-81
2022/02/19 09:23:44;;;;;;;5.37;2.57;;;;;;;;;;5042931;28;20437;-80
2022/02/19 09:26:10;;;;;;;5.55;1.67;;;;;;;;;;5042100;28;20409;-80
2022/02/19 09:28:40;;;;;;;8.93;2.55;;;;;;;;;;5042555;28;20438;-78
2022/02/19 09:31:06;;;;;;;5.10;2.00;;;;;;;;;;5060855;28;20175;-80
2022/02/19 09:33:32;;;;;;;6.70;2.23;;;;;;;;;;5062247;28;20405;-80
2022/02/19 09:35:58;;;;;;;7.30;1.93;;;;;;;;;;5053282;28;20410;-80
2022/02/19 09:38:24;;;;;;;3.90;1.40;;;;;;;;;;5061997;28;20421;-81
2022/02/19 09:40:51;;;;;;;6.47;1.70;;;;;;;;;;5041910;28;20421;-80
2022/02/19 09:43:17;;;;;;;4.30;2.83;;;;;;;;;;5040430;28;20180;-80
2022/02/19 09:45:46;;;;;;;9.13;2.10;;;;;;;;;;5040954;28;20411;-80
2022/02/19 09:48:12;;;;;;;4.30;1.97;;;;;;;;;;5040605;28;20458;-80
2022/02/19 09:50:39;;;;;;;5.13;2.30;;;;;;;;;;5041406;28;20422;-80
2022/02/19 09:53:05;;;;;;;8.33;2.17;;;;;;;;;;5041044;28;20902;-80
2022/02/19 09:55:33;;;;;;;5.27;1.50;;;;;;;;;;5040910;28;20826;-79
2022/02/19 09:58:00;;;;;;;12.17;2.10;;;;;;;;;;5040935;28;20426;-79
2022/02/19 10:00:29;;;;;;;4.40;1.63;;;;;;;;;;5040375;28;20462;-79
2022/02/19 10:02:55;;;;;;;3.37;1.50;;;;;;;;;;5035043;28;20449;-79
2022/02/19 10:05:26;;;;;;;8.30;2.10;;;;;;;;;;5060625;28;20600;-79
2022/02/19 10:08:06;;;;;;;9.60;2.60;;;;;;;;;;5050955;28;20426;-80
2022/02/19 10:10:34;;;;;;;4.30;1.67;;;;;;;;;;5039278;28;20422;-79
2022/02/19 10:13:00;;;;;;;10.13;2.28;;;;;;;;;;5038796;28;20406;-80
2022/02/19 10:15:39;;;;;;;6.13;1.73;;;;;;;;;;5039260;28;20183;-79
2022/02/19 10:18:32;;;;;;;9.05;2.00;;;;;;;;;;5039984;28;20877;-79
2022/02/19 10:21:10;;;;;;;7.40;1.70;;;;;;;;;;5052936;28;20443;-79
2022/02/19 10:23:39;;;;;;;6.87;2.03;;;;;;;;;;5059590;28;20190;-79
2022/02/19 10:26:05;;;;;;;9.60;1.97;;;;;;;;;;5061004;28;20406;-79
2022/02/19 10:28:31;;;;;;;3.53;1.60;;;;;;;;;;5060095;28;20445;-80
2022/02/19 10:31:09;;;;;;;11.20;2.67;;;;;;;;;;5051468;28;20414;-79
2022/02/19 10:33:35;;;;;;;5.90;2.00;;;;;;;;;;5032354;28;20789;-79
2022/02/19 10:36:01;;;;;;;5.10;2.00;;;;;;;;;;5054477;28;20475;-79
2022/02/19 10:38:27;;;;;;;7.23;1.93;;;;;;;;;;5055253;28;20910;-78
2022/02/19 10:40:56;;;;;;;6.40;1.97;;;;;;;;;;5038969;28;20434;-78
2022/02/19 10:43:29;;;;;;;6.63;2.20;;;;;;;;;;5040006;28;20472;-79
2022/02/19 10:45:56;;;;;;;6.72;1.80;;;;;;;;;;5038010;28;20433;-79
2022/02/19 10:48:30;;;;;;;7.03;1.90;;;;;;;;;;5039030;28;20488;-80
2022/02/19 10:51:08;;;;;;;7.43;2.17;;;;;;;;;;5048937;28;20421;-79
2022/02/19 10:53:36;;;;;;;8.47;1.90;;;;;;;;;;5060652;28;20404;-78
2022/02/19 10:56:10;;;;;;;7.20;1.90;;;;;;;;;;5059689;28;20400;-79
2022/02/19 10:58:36;;;;;;;5.68;1.83;;;;;;;;;;5059036;28;20459;-78
2022/02/19 11:01:06;;;;;;;11.50;2.20;;;;;;;;;;5060212;28;20175;-79
2022/02/19 11:03:32;;;;;;;5.32;1.90;;;;;;;;;;5052636;28;20415;-78
2022/02/19 11:05:58;;;;;;;7.77;2.23;;;;;;;;;;5048474;28;20175;-78
2022/02/19 11:08:24;;;;;;;11.03;2.80;;;;;;;;;;5040488;28;20453;-79
2022/02/19 11:10:51;;;;;;;3.50;1.93;;;;;;;;;;5060371;28;20452;-79
2022/02/19 11:13:17;;;;;;;6.07;1.80;;;;;;;;;;5051178;28;20409;-79
2022/02/19 11:15:44;;;;;;;4.43;1.50;;;;;;;;;;5040741;28;20199;-79
2022/02/19 11:18:10;;;;;;;6.70;2.00;;;;;;;;;;5039805;28;20397;-78
2022/02/19 11:20:36;;;;;;;9.23;2.20;;;;;;;;;;5039789;28;20454;-79
2022/02/19 11:23:03;;;;;;;7.37;2.80;;;;;;;;;;5040235;28;20422;-78
2022/02/19 11:25:29;;;;;;;10.90;2.60;;;;;;;;;;5046928;28;20767;-79
2022/02/19 11:28:06;;;;;;;9.02;2.40;;;;;;;;;;5058762;28;20439;-78
2022/02/19 11:30:34;;;;;;;5.43;1.47;;;;;;;;;;5058414;28;20194;-78
2022/02/19 11:33:01;;;;;;;5.63;2.20;;;;;;;;;;5060197;28;20460;-79
2022/02/19 11:35:34;;;;;;;5.43;2.70;;;;;;;;;;5060067;28;20405;-79
2022/02/19 11:38:01;;;;;;;5.40;1.70;;;;;;;;;;5046778;28;20498;-79
2022/02/19 11:40:42;;;;;;;5.00;2.10;;;;;;;;;;5037323;28;20207;-78
2022/02/19 11:43:29;;;;;;;5.80;2.30;;;;;;;;;;5037802;28;20486;-79
2022/02/19 11:45:55;;;;;;;6.00;2.38;;;;;;;;;;5038637;28;20409;-79
2022/02/19 11:48:21;;;;;;;6.53;1.97;;;;;;;;;;5035939;28;20211;-78
2022/02/19 11:50:48;;;;;;;7.10;2.63;;;;;;;;;;5038108;28;20468;-79
2022/02/19 11:53:14;;;;;;;6.17;1.80;;;;;;;;;;5037885;28;20446;-78
2022/02/19 11:55:41;;;;;;;6.20;2.00;;;;;;;;;;5040254;28;20441;-77
2022/02/19 11:58:07;;;;;;;5.33;2.20;;;;;;;;;;5037842;28;20415;-78
2022/02/19 12:00:46;;;;;;;7.10;2.10;;;;;;;;;;5038117;28;20434;-78
2022/02/19 12:03:20;;;;;;;3.95;1.90;;;;;;;;;;5036995;28;20426;-78
2022/02/19 12:06:05;;;;;;;13.70;2.60;;;;;;;;;;5037938;28;20437;-79
2022/02/19 12:08:49;;;;;;;7.80;2.70;;;;;;;;;;5038293;28;20454;-79
2022/02/19 12:11:17;;;;;;;3.80;1.83;;;;;;;;;;5019281;28;20407;-79
2022/02/19 12:13:46;;;;;;;5.07;2.00;;;;;;;;;;5034781;28;20442;-79
2022/02/19 12:16:39;;;;;;;13.73;2.10;;;;;;;;;;5036223;28;20414;-78
2022/02/19 12:19:10;;;;;;;8.70;2.30;;;;;;;;;;5037330;28;20430;-79
2022/02/19 12:21:46;;;;;;;8.80;2.33;;;;;;;;;;5040419;28;20417;-80
2022/02/19 12:24:15;;;;;;;7.57;2.80;;;;;;;;;;5039362;28;20767;-80
2022/02/19 12:27:08;;;;;;;13.73;2.70;;;;;;;;;;5038326;28;20735;-78
2022/02/19 12:29:35;;;;;;;6.70;3.23;;;;;;;;;;5039489;28;20461;-79
2022/02/19 12:32:06;;;;;;;5.90;2.03;;;;;;;;;;5039797;28;20410;-78
2022/02/19 12:34:33;;;;;;;5.50;1.97;;;;;;;;;;5043723;28;20534;-78
2022/02/19 12:36:59;;;;;;;7.27;1.80;;;;;;;;;;5048037;28;20474;-77
2022/02/19 12:39:26;;;;;;;5.13;1.73;;;;;;;;;;5053264;28;20477;-76
2022/02/19 12:41:56;;;;;;;4.97;1.80;;;;;;;;;;5053714;28;20419;-77
2022/02/19 12:44:23;;;;;;;4.53;2.30;;;;;;;;;;5053144;28;20421;-76
2022/02/19 12:46:52;;;;;;;5.13;1.90;;;;;;;;;;5051270;28;20206;-77
2022/02/19 12:49:19;;;;;;;9.63;2.37;;;;;;;;;;5049379;28;20434;-77
2022/02/19 12:51:52;;;;;;;3.80;1.80;;;;;;;;;;5049455;28;20410;-79
2022/02/19 12:54:37;;;;;;;6.13;1.97;;;;;;;;;;5042477;28;20813;-79
2022/02/19 12:57:07;;;;;;;7.00;2.60;;;;;;;;;;5038970;28;20426;-79
2022/02/19 12:59:34;;;;;;;4.47;2.00;;;;;;;;;;5060330;28;20425;-77
2022/02/19 13:02:04;;;;;;;6.95;2.22;;;;;;;;;;5061228;28;20407;-79
2022/02/19 13:04:31;;;;;;;4.23;1.70;;;;;;;;;;5054131;28;20180;-78
2022/02/19 13:06:58;;;;;;;4.37;2.00;;;;;;;;;;5061847;28;20453;-80
2022/02/19 13:09:26;;;;;;;6.20;2.40;;;;;;;;;;5061017;28;20516;-81
2022/02/19 13:11:53;;;;;;;5.10;1.83;;;;;;;;;;5039705;28;20553;-78
2022/02/19 13:14:20;;;;;;;5.97;2.30;;;;;;;;;;5053421;28;20913;-79
2022/02/19 13:17:09;;;;;;;8.43;2.30;;;;;;;;;;5061558;28;20899;-80
2022/02/19 13:19:36;;;;;;;8.03;2.77;;;;;;;;;;5040151;28;20434;-80
2022/02/19 13:22:06;;;;;;;6.47;1.70;;;;;;;;;;5039484;28;20410;-79
2022/02/19 13:24:34;;;;;;;4.53;1.60;;;;;;;;;;5040830;28;20773;-80
2022/02/19 13:27:16;;;;;;;5.00;2.13;;;;;;;;;;5041545;28;20461;-81
2022/02/19 13:29:49;;;;;;;6.00;2.07;;;;;;;;;;5048231;28;20452;-80
2022/02/19 13:32:16;;;;;;;6.17;2.20;;;;;;;;;;5064047;28;20397;-79
2022/02/19 13:34:42;;;;;;;18.23;2.60;;;;;;;;;;5069966;28;20465;-81
2022/02/19 13:37:08;;;;;;;10.80;2.03;;;;;;;;;;5059168;28;20485;-80
2022/02/19 13:39:36;;;;;;;6.13;2.63;;;;;;;;;;5040834;28;20522;-81
2022/02/19 13:42:02;;;;;;;5.73;2.10;;;;;;;;;;5043667;28;20410;-80
2022/02/19 13:44:30;;;;;;;4.47;2.30;;;;;;;;;;5042453;28;20429;-79
2022/02/19 13:46:57;;;;;;;15.10;2.40;;;;;;;;;;5044184;28;20450;-80
2022/02/19 13:49:34;;;;;;;6.23;2.00;;;;;;;;;;5043475;28;20794;-82
2022/02/19 13:52:00;;;;;;;4.63;1.87;;;;;;;;;;5042741;28;20884;-81
2022/02/19 13:54:26;;;;;;;3.00;1.57;;;;;;;;;;5041800;28;20411;-80
2022/02/19 13:56:53;;;;;;;4.57;2.00;;;;;;;;;;5041312;28;20399;-79
2022/02/19 13:59:19;;;;;;;5.00;1.93;;;;;;;;;;5038868;28;20431;-76
2022/02/19 14:01:46;;;;;;;4.23;1.70;;;;;;;;;;5037937;28;20870;-80
2022/02/19 14:04:32;;;;;;;3.93;2.03;;;;;;;;;;5040046;28;20430;-79
2022/02/19 14:07:08;;;;;;;6.13;1.90;;;;;;;;;;5051782;28;20445;-80
2022/02/19 14:09:34;;;;;;;7.23;2.20;;;;;;;;;;5059377;28;20767;-81
2022/02/19 14:12:01;;;;;;;5.73;2.00;;;;;;;;;;5053449;28;20775;-80
2022/02/19 14:14:34;;;;;;;5.20;1.50;;;;;;;;;;5060476;28;20407;-80
2022/02/19 14:17:01;;;;;;;5.10;2.07;;;;;;;;;;5061051;28;20171;-81
2022/02/19 14:19:27;;;;;;;7.03;2.17;;;;;;;;;;5060691;28;20414;-81
2022/02/19 14:22:05;;;;;;;6.33;2.03;;;;;;;;;;5060553;28;20413;-81
2022/02/19 14:24:31;;;;;;;7.83;2.67;;;;;;;;;;5060544;28;20409;-81
2022/02/19 14:27:08;;;;;;;4.33;2.00;;;;;;;;;;5058516;28;20934;-80
2022/02/19 14:29:34;;;;;;;5.73;1.93;;;;;;;;;;5047635;28;20452;-81
2022/02/19 14:32:00;;;;;;;6.70;1.87;;;;;;;;;;5039989;28;20821;-79
2022/02/19 14:34:26;;;;;;;7.70;2.00;;;;;;;;;;5032034;28;20946;-81
2022/02/19 14:36:52;;;;;;;5.87;1.90;;;;;;;;;;5037387;28;20442;-79
2022/02/19 14:39:18;;;;;;;5.63;1.50;;;;;;;;;;5058388;28;20415;-79
2022/02/19 14:41:44;;;;;;;8.57;2.83;;;;;;;;;;5044529;28;20540;-80
2022/02/19 14:44:10;;;;;;;7.07;2.20;;;;;;;;;;5040372;28;20409;-79
2022/02/19 14:46:37;;;;;;;8.10;2.20;;;;;;;;;;5039685;28;20511;-78
2022/02/19 14:49:03;;;;;;;7.10;2.30;;;;;;;;;;5038434;28;20446;-80
2022/02/19 14:51:29;;;;;;;11.87;2.57;;;;;;;;;;5039799;28;20395;-80
2022/02/19 14:53:55;;;;;;;4.73;1.70;;;;;;;;;;5041470;28;20403;-80